createdAt,value
2019-05-17T00:01:19.035Z,84.67
2019-05-17T00:03:51.046Z,89.03
2019-05-17T00:06:19.504Z,81.97
2019-05-17T00:08:48.022Z,84.10
2019-05-17T00:11:18.421Z,85.20
2019-05-17T00:13:47.118Z,93.37
2019-05-17T00:16:17.446Z,80.47
2019-05-17T00:18:46.468Z,85.67
2019-05-17T00:21:16.937Z,82.45
2019-05-17T00:23:46.973Z,79.67
2019-05-17T00:26:16.412Z,89.42
2019-05-17T00:28:46.961Z,86.63
2019-05-17T00:31:17.124Z,79.72
2019-05-17T00:33:47.128Z,78.55
2019-05-17T00:36:18.024Z,78.65
2019-05-17T00:38:51.236Z,82.65
2019-05-17T00:41:18.632Z,74.58
2019-05-17T00:43:48.413Z,81.47
2019-05-17T00:46:17.380Z,77.53
2019-05-17T00:48:46.869Z,84.87
2019-05-17T00:51:16.704Z,80.25
2019-05-17T00:53:46.854Z,80.03
2019-05-17T00:56:17.107Z,81.47
2019-05-17T00:58:47.810Z,84.95
2019-05-17T01:01:16.898Z,85.55
2019-05-17T01:03:47.688Z,85.28
2019-05-17T01:06:16.930Z,86.87
2019-05-17T01:09:07.783Z,83.17
2019-05-17T01:11:36.670Z,84.07
2019-05-17T01:14:26.469Z,93.87
2019-05-17T01:16:56.496Z,87.78
2019-05-17T01:19:27.002Z,100.45
2019-05-17T01:21:56.798Z,79.97
2019-05-17T01:24:27.418Z,92.78
2019-05-17T01:26:57.397Z,85.60
2019-05-17T01:29:26.830Z,88.15
2019-05-17T01:31:57.079Z,89.85
2019-05-17T01:34:27.343Z,78.85
2019-05-17T01:36:57.004Z,85.57
2019-05-17T01:39:26.864Z,80.32
2019-05-17T01:41:57.350Z,79.42
2019-05-17T01:44:27.252Z,89.77
2019-05-17T01:46:56.693Z,101.47
2019-05-17T01:49:27.081Z,94.42
2019-05-17T01:51:56.819Z,82.12
2019-05-17T01:54:26.949Z,79.62
2019-05-17T01:56:56.714Z,75.52
2019-05-17T01:59:26.815Z,73.33
2019-05-17T02:02:16.656Z,69.95
2019-05-17T02:04:46.776Z,74.95
2019-05-17T02:07:17.282Z,78.42
2019-05-17T02:09:47.744Z,71.72
2019-05-17T02:12:17.273Z,77.82
2019-05-17T02:14:46.788Z,79.00
2019-05-17T02:17:17.411Z,78.40
2019-05-17T02:19:46.557Z,78.50
2019-05-17T02:22:16.753Z,76.72
2019-05-17T02:24:46.440Z,82.22
2019-05-17T02:27:15.252Z,87.17
2019-05-17T02:29:43.692Z,89.25
2019-05-17T02:32:13.901Z,84.62
2019-05-17T02:34:43.181Z,83.33
2019-05-17T02:37:13.609Z,88.07
2019-05-17T02:39:57.122Z,82.95
2019-05-17T02:42:14.397Z,84.20
2019-05-17T02:44:43.728Z,91.60
2019-05-17T02:47:13.318Z,90.00
2019-05-17T02:49:42.894Z,87.95
2019-05-17T02:52:12.604Z,93.05
2019-05-17T02:54:43.719Z,91.35
2019-05-17T02:57:14.409Z,89.40
2019-05-17T02:59:43.902Z,94.15
2019-05-17T03:02:12.835Z,98.33
2019-05-17T03:04:43.304Z,96.15
2019-05-17T03:07:13.579Z,96.82
2019-05-17T03:09:43.143Z,103.38
2019-05-17T03:12:12.861Z,101.00
2019-05-17T03:14:43.299Z,96.02
2019-05-17T03:17:14.095Z,93.30
2019-05-17T03:19:43.527Z,94.35
2019-05-17T03:22:13.184Z,105.32
2019-05-17T03:24:44.107Z,100.10
2019-05-17T03:27:13.605Z,100.60
2019-05-17T03:29:42.600Z,100.62
2019-05-17T03:32:17.145Z,98.62
2019-05-17T03:34:46.706Z,99.53
2019-05-17T03:37:16.381Z,98.82
2019-05-17T03:39:45.280Z,97.25
2019-05-17T03:42:13.769Z,84.67
2019-05-17T03:44:43.788Z,82.85
2019-05-17T03:47:13.125Z,90.97
2019-05-17T03:49:43.640Z,75.00
2019-05-17T03:52:33.297Z,58.20
2019-05-17T03:55:04.127Z,52.85
2019-05-17T03:57:32.502Z,44.58
2019-05-17T04:00:03.853Z,43.00
2019-05-17T04:02:32.658Z,37.70
2019-05-17T04:05:04.444Z,47.05
2019-05-17T04:07:33.059Z,42.35
2019-05-17T04:10:04.507Z,44.98
2019-05-17T04:12:32.882Z,46.00
2019-05-17T04:15:03.252Z,48.33
2019-05-17T04:17:32.838Z,46.90
2019-05-17T04:20:03.424Z,46.83
2019-05-17T04:22:33.149Z,39.85
2019-05-17T04:25:03.160Z,45.75
2019-05-17T04:27:32.777Z,39.78
2019-05-17T04:30:03.736Z,38.95
2019-05-17T04:32:33.029Z,39.90
2019-05-17T04:35:03.665Z,41.20
2019-05-17T04:37:36.089Z,38.28
2019-05-17T04:40:05.282Z,38.60
2019-05-17T04:42:33.786Z,37.33
2019-05-17T04:45:03.980Z,38.73
2019-05-17T04:47:33.339Z,32.55
2019-05-17T04:50:04.116Z,29.75
2019-05-17T04:52:33.736Z,30.48
2019-05-17T04:55:04.070Z,27.70
2019-05-17T04:57:33.568Z,24.77
2019-05-17T05:00:04.283Z,23.38
2019-05-17T05:02:33.121Z,22.93
2019-05-17T05:05:03.257Z,24.10
2019-05-17T05:07:33.549Z,22.75
2019-05-17T05:10:03.234Z,20.32
2019-05-17T05:12:33.520Z,20.15
2019-05-17T05:15:03.751Z,19.50
2019-05-17T05:17:32.887Z,18.87
2019-05-17T05:20:02.853Z,19.80
2019-05-17T05:22:32.950Z,19.30
2019-05-17T05:25:02.361Z,19.82
2019-05-17T05:27:31.775Z,21.70
2019-05-17T05:30:02.854Z,22.50
2019-05-17T05:32:31.562Z,21.30
2019-05-17T05:35:02.879Z,21.05
2019-05-17T05:37:33.015Z,20.92
2019-05-17T05:40:02.116Z,21.60
2019-05-17T05:42:31.496Z,22.32
2019-05-17T05:45:00.174Z,22.77
2019-05-17T05:47:29.596Z,24.05
2019-05-17T05:50:01.427Z,24.87
2019-05-17T05:52:29.424Z,24.72
2019-05-17T05:54:57.884Z,24.35
2019-05-17T05:57:27.316Z,22.95
2019-05-17T05:59:56.064Z,21.60
2019-05-17T06:02:24.864Z,20.60
2019-05-17T06:04:53.308Z,19.50
2019-05-17T06:07:21.798Z,19.95
2019-05-17T06:09:51.781Z,20.40
2019-05-17T06:12:24.755Z,18.85
2019-05-17T06:14:53.110Z,19.02
2019-05-17T06:17:23.485Z,17.10
2019-05-17T06:19:52.244Z,17.65
2019-05-17T06:22:22.360Z,18.42
2019-05-17T06:24:52.013Z,18.20
2019-05-17T06:27:21.654Z,18.57
2019-05-17T06:29:51.476Z,17.77
2019-05-17T06:32:22.709Z,17.55
2019-05-17T06:34:51.509Z,17.90
2019-05-17T06:37:22.389Z,15.98
2019-05-17T06:39:52.688Z,15.53
2019-05-17T06:42:36.990Z,15.13
2019-05-17T06:44:52.403Z,15.72
2019-05-17T06:47:22.510Z,16.62
2019-05-17T06:49:53.531Z,15.70
2019-05-17T06:52:23.362Z,16.12
2019-05-17T06:54:52.516Z,15.28
2019-05-17T06:57:23.353Z,17.32
2019-05-17T06:59:51.587Z,15.78
2019-05-17T07:02:22.003Z,16.25
2019-05-17T07:04:54.086Z,16.57
2019-05-17T07:07:30.522Z,15.83
2019-05-17T07:10:00.754Z,16.57
2019-05-17T07:12:30.710Z,16.00
2019-05-17T07:15:01.805Z,15.10
2019-05-17T07:17:30.894Z,15.93
2019-05-17T07:19:59.858Z,14.80
2019-05-17T07:22:29.648Z,16.60
2019-05-17T07:25:00.551Z,14.25
2019-05-17T07:27:40.663Z,15.38
2019-05-17T07:29:59.506Z,14.30
2019-05-17T07:32:29.791Z,15.72
2019-05-17T07:35:01.342Z,15.03
2019-05-17T07:37:32.077Z,15.83
2019-05-17T07:40:05.104Z,15.03
2019-05-17T07:42:31.923Z,14.38
2019-05-17T07:45:00.660Z,14.23
2019-05-17T07:47:29.604Z,14.40
2019-05-17T07:50:00.708Z,13.10
2019-05-17T07:52:30.020Z,11.45
2019-05-17T07:55:02.367Z,13.55
2019-05-17T07:57:29.939Z,14.33
2019-05-17T07:59:59.920Z,16.42
2019-05-17T08:02:30.716Z,16.10
2019-05-17T08:05:00.473Z,17.00
2019-05-17T08:07:30.172Z,18.85
2019-05-17T08:10:00.194Z,18.80
2019-05-17T08:12:30.441Z,19.62
2019-05-17T08:14:59.830Z,20.30
2019-05-17T08:17:30.442Z,19.17
2019-05-17T08:20:00.629Z,17.98
2019-05-17T08:22:30.761Z,19.62
2019-05-17T08:25:00.019Z,20.17
2019-05-17T08:27:30.745Z,20.85
2019-05-17T08:30:00.094Z,19.87
2019-05-17T08:32:31.394Z,20.77
2019-05-17T08:35:00.281Z,20.60
2019-05-17T08:37:30.196Z,19.57
2019-05-17T08:40:00.836Z,20.55
2019-05-17T08:42:29.981Z,19.65
2019-05-17T08:45:00.272Z,20.65
2019-05-17T08:47:50.107Z,22.35
2019-05-17T08:50:20.077Z,23.40
2019-05-17T08:52:49.556Z,23.02
2019-05-17T08:55:20.460Z,22.42
2019-05-17T08:57:50.580Z,27.37
2019-05-17T09:00:20.616Z,27.60
2019-05-17T09:02:50.579Z,26.90
2019-05-17T09:05:21.071Z,25.60
2019-05-17T09:07:49.808Z,21.80
2019-05-17T09:10:20.745Z,21.37
2019-05-17T09:12:50.232Z,21.77
2019-05-17T09:15:20.351Z,21.65
2019-05-17T09:17:49.834Z,23.65
2019-05-17T09:20:20.409Z,22.37
2019-05-17T09:22:50.855Z,23.22
2019-05-17T09:25:21.794Z,20.82
2019-05-17T09:27:50.108Z,20.25
2019-05-17T09:30:20.290Z,20.17
2019-05-17T09:32:50.345Z,22.73
2019-05-17T09:35:20.770Z,23.05
2019-05-17T09:37:49.938Z,22.52
2019-05-17T09:40:19.997Z,22.85
2019-05-17T09:42:49.947Z,21.85
2019-05-17T09:45:20.154Z,20.92
2019-05-17T09:47:50.606Z,22.75
2019-05-17T09:50:20.454Z,23.02
2019-05-17T09:52:49.453Z,23.12
2019-05-17T09:55:19.586Z,23.12
2019-05-17T09:57:49.677Z,24.90
2019-05-17T10:00:20.882Z,24.37
2019-05-17T10:02:50.765Z,23.45
2019-05-17T10:05:20.210Z,23.73
2019-05-17T10:07:50.681Z,22.85
2019-05-17T10:10:20.300Z,22.13
2019-05-17T10:12:49.759Z,21.60
2019-05-17T10:15:20.677Z,21.87
2019-05-17T10:17:49.253Z,25.50
2019-05-17T10:20:19.989Z,20.75
2019-05-17T10:22:50.414Z,20.10
2019-05-17T10:25:20.112Z,19.85
2019-05-17T10:27:49.854Z,20.75
2019-05-17T10:30:20.752Z,22.50
2019-05-17T10:32:50.558Z,18.50
2019-05-17T10:35:19.914Z,17.85
2019-05-17T10:37:50.604Z,17.98
2019-05-17T10:40:20.773Z,19.02
2019-05-17T10:42:50.031Z,33.85
2019-05-17T10:45:19.816Z,21.27
2019-05-17T10:47:50.281Z,19.00
2019-05-17T10:50:20.536Z,18.40
2019-05-17T10:52:49.333Z,19.27
2019-05-17T10:55:20.010Z,19.23
2019-05-17T10:57:49.987Z,18.00
2019-05-17T11:00:19.832Z,15.70
2019-05-17T11:02:50.331Z,16.60
2019-05-17T11:05:20.100Z,15.48
2019-05-17T11:07:50.407Z,14.60
2019-05-17T11:10:19.545Z,19.05
2019-05-17T11:12:48.471Z,22.27
2019-05-17T11:15:17.156Z,15.05
2019-05-17T11:17:45.951Z,12.53
2019-05-17T11:20:15.733Z,12.90
2019-05-17T11:22:44.176Z,12.10
2019-05-17T11:25:12.878Z,11.70
2019-05-17T11:27:41.340Z,10.68
2019-05-17T11:30:29.116Z,11.10
2019-05-17T11:32:58.050Z,12.78
2019-05-17T11:35:28.338Z,10.85
2019-05-17T11:37:58.872Z,10.13
2019-05-17T11:40:29.182Z,11.60
2019-05-17T11:43:17.356Z,12.90
2019-05-17T11:45:45.842Z,10.32
2019-05-17T11:48:14.531Z,10.53
2019-05-17T11:50:42.986Z,10.15
2019-05-17T11:53:11.817Z,11.22
2019-05-17T11:55:40.260Z,10.78
2019-05-17T11:58:08.696Z,11.33
2019-05-17T12:00:38.116Z,10.60
2019-05-17T12:03:06.800Z,9.98
2019-05-17T12:05:35.929Z,11.45
2019-05-17T12:08:04.356Z,10.03
2019-05-17T12:10:33.170Z,12.20
2019-05-17T12:13:02.148Z,11.43
2019-05-17T12:15:43.835Z,12.63
2019-05-17T12:18:00.763Z,11.35
2019-05-17T12:20:29.552Z,14.15
2019-05-17T12:22:58.988Z,11.70
2019-05-17T12:25:27.755Z,12.15
2019-05-17T12:27:56.361Z,11.50
2019-05-17T12:30:24.819Z,11.75
2019-05-17T12:32:53.244Z,12.70
2019-05-17T12:35:21.700Z,12.58
2019-05-17T12:37:50.221Z,12.10
2019-05-17T12:40:19.485Z,11.43
2019-05-17T12:42:48.299Z,12.63
2019-05-17T12:45:16.999Z,13.08
2019-05-17T12:47:45.440Z,12.53
2019-05-17T12:50:14.311Z,11.12
2019-05-17T12:52:42.776Z,12.95
2019-05-17T12:55:11.356Z,12.70
2019-05-17T12:57:59.451Z,12.93
2019-05-17T13:00:28.091Z,13.65
2019-05-17T13:02:57.497Z,15.83
2019-05-17T13:05:26.261Z,14.80
2019-05-17T13:07:54.697Z,12.65
2019-05-17T13:10:23.129Z,11.12
2019-05-17T13:12:51.892Z,10.60
2019-05-17T13:15:20.575Z,9.88
2019-05-17T13:17:49.278Z,10.25
2019-05-17T13:20:18.999Z,10.00
2019-05-17T13:22:48.757Z,9.33
2019-05-17T13:25:17.328Z,9.73
2019-05-17T13:27:45.780Z,8.95
2019-05-17T13:30:15.344Z,8.85
2019-05-17T13:32:43.769Z,9.75
2019-05-17T13:35:12.549Z,11.73
2019-05-17T13:37:40.999Z,10.53
2019-05-17T13:40:09.984Z,10.80
2019-05-17T13:42:38.413Z,9.90
2019-05-17T13:45:07.432Z,9.93
2019-05-17T13:47:35.854Z,9.30
2019-05-17T13:50:06.195Z,9.15
2019-05-17T13:52:36.987Z,9.28
2019-05-17T13:55:07.121Z,9.75
2019-05-17T13:57:35.548Z,9.70
2019-05-17T14:00:05.764Z,10.68
2019-05-17T14:02:34.206Z,10.82
2019-05-17T14:05:05.351Z,9.98
2019-05-17T14:07:34.957Z,10.95
2019-05-17T14:10:05.667Z,10.80
2019-05-17T14:12:35.027Z,11.12
2019-05-17T14:15:06.868Z,10.55
2019-05-17T14:17:35.323Z,10.80
2019-05-17T14:20:05.034Z,10.60
2019-05-17T14:22:36.019Z,9.98
2019-05-17T14:25:05.317Z,9.85
2019-05-17T14:27:33.757Z,10.60
2019-05-17T14:30:02.537Z,10.98
2019-05-17T14:32:32.068Z,11.48
2019-05-17T14:35:00.777Z,11.80
2019-05-17T14:37:30.136Z,11.33
2019-05-17T14:39:58.568Z,10.90
2019-05-17T14:42:27.358Z,12.05
2019-05-17T14:44:56.148Z,12.88
2019-05-17T14:47:26.524Z,11.85
2019-05-17T14:49:55.281Z,12.93
2019-05-17T14:52:23.717Z,13.10
2019-05-17T14:54:52.170Z,12.60
2019-05-17T14:57:20.599Z,11.80
2019-05-17T14:59:49.417Z,12.03
2019-05-17T15:02:23.587Z,12.33
2019-05-17T15:04:52.038Z,11.45
2019-05-17T15:07:20.588Z,12.40
2019-05-17T15:09:49.403Z,12.65
2019-05-17T15:12:27.933Z,12.63
2019-05-17T15:14:49.459Z,12.90
2019-05-17T15:17:18.492Z,12.20
2019-05-17T15:19:51.095Z,15.63
2019-05-17T15:22:17.512Z,13.25
2019-05-17T15:24:46.549Z,13.72
2019-05-17T15:27:16.272Z,14.20
2019-05-17T15:29:44.720Z,13.28
2019-05-17T15:32:13.167Z,12.28
2019-05-17T15:34:41.673Z,12.47
2019-05-17T15:37:10.132Z,14.18
2019-05-17T15:39:39.816Z,13.48
2019-05-17T15:42:08.286Z,14.95
2019-05-17T15:44:36.769Z,13.35
2019-05-17T15:47:06.916Z,14.00
2019-05-17T15:49:35.413Z,12.82
2019-05-17T15:52:04.192Z,13.43
2019-05-17T15:54:34.617Z,13.35
2019-05-17T15:57:03.422Z,13.22
2019-05-17T15:59:31.867Z,15.45
2019-05-17T16:02:00.307Z,17.82
2019-05-17T16:04:28.813Z,14.38
2019-05-17T16:06:57.270Z,13.60
2019-05-17T16:09:25.713Z,12.80
2019-05-17T16:11:54.161Z,12.98
2019-05-17T16:14:22.651Z,14.98
2019-05-17T16:16:51.096Z,13.55
2019-05-17T16:19:19.887Z,13.95
2019-05-17T16:21:49.593Z,14.03
2019-05-17T16:24:18.036Z,14.38
2019-05-17T16:26:46.772Z,13.70
2019-05-17T16:29:16.124Z,13.85
2019-05-17T16:31:45.570Z,14.43
2019-05-17T16:34:15.792Z,13.22
2019-05-17T16:36:44.314Z,13.48
2019-05-17T16:39:13.091Z,13.08
2019-05-17T16:41:41.529Z,14.28
2019-05-17T16:44:10.023Z,14.33
2019-05-17T16:46:38.459Z,13.10
2019-05-17T16:49:07.808Z,15.28
2019-05-17T16:51:55.586Z,13.48
2019-05-17T16:54:28.297Z,18.57
2019-05-17T16:56:57.144Z,15.90
2019-05-17T16:59:25.583Z,13.28
2019-05-17T17:01:54.316Z,13.53
2019-05-17T17:04:23.667Z,11.68
2019-05-17T17:06:53.440Z,11.63
2019-05-17T17:09:21.932Z,12.93
2019-05-17T17:11:51.452Z,17.42
2019-05-17T17:14:19.952Z,42.45
2019-05-17T17:16:49.477Z,16.85
2019-05-17T17:19:18.092Z,14.78
2019-05-17T17:21:46.811Z,13.95
2019-05-17T17:24:17.180Z,13.20
2019-05-17T17:26:49.049Z,12.37
2019-05-17T17:29:18.022Z,12.53
2019-05-17T17:31:46.467Z,12.33
2019-05-17T17:34:17.112Z,12.10
2019-05-17T17:36:45.558Z,21.77
2019-05-17T17:39:14.288Z,22.20
2019-05-17T17:41:43.091Z,12.70
2019-05-17T17:44:11.532Z,15.03
2019-05-17T17:46:40.327Z,12.95
2019-05-17T17:49:09.053Z,11.38
2019-05-17T17:51:37.841Z,13.68
2019-05-17T17:54:06.276Z,13.72
2019-05-17T17:56:34.712Z,12.23
2019-05-17T17:59:03.608Z,16.82
2019-05-17T18:01:32.394Z,13.80
2019-05-17T18:04:01.780Z,14.05
2019-05-17T18:06:30.276Z,13.13
2019-05-17T18:08:59.097Z,13.13
2019-05-17T18:11:27.594Z,12.43
2019-05-17T18:13:56.124Z,13.03
2019-05-17T18:16:43.892Z,12.63
2019-05-17T18:19:12.347Z,13.55
2019-05-17T18:21:40.793Z,13.38
2019-05-17T18:24:09.256Z,15.10
2019-05-17T18:26:38.698Z,15.58
2019-05-17T18:29:10.507Z,13.18
2019-05-17T18:31:38.952Z,15.70
2019-05-17T18:34:07.422Z,27.32
2019-05-17T18:36:38.381Z,27.70
2019-05-17T18:39:07.412Z,22.55
2019-05-17T18:41:38.140Z,32.30
2019-05-17T18:44:06.600Z,30.80
2019-05-17T18:46:35.058Z,27.13
2019-05-17T18:49:03.564Z,24.47
2019-05-17T18:51:32.296Z,25.25
2019-05-17T18:54:01.701Z,23.32
2019-05-17T18:56:30.153Z,30.32
2019-05-17T18:59:01.616Z,26.93
2019-05-17T19:01:30.084Z,23.90
2019-05-17T19:03:58.524Z,24.00
2019-05-17T19:06:27.047Z,27.98
2019-05-17T19:08:55.521Z,24.32
2019-05-17T19:11:24.269Z,24.23
2019-05-17T19:13:52.731Z,25.17
2019-05-17T19:16:22.132Z,23.30
2019-05-17T19:18:51.564Z,23.80
2019-05-17T19:21:20.320Z,24.95
2019-05-17T19:23:48.793Z,25.55
2019-05-17T19:26:17.641Z,22.20
2019-05-17T19:28:46.119Z,23.15
2019-05-17T19:31:14.564Z,34.50
2019-05-17T19:33:43.001Z,29.80
2019-05-17T19:36:11.705Z,31.20
2019-05-17T19:38:40.372Z,23.70
2019-05-17T19:41:08.867Z,22.80
2019-05-17T19:43:37.299Z,23.45
2019-05-17T19:46:05.868Z,23.12
2019-05-17T19:48:35.691Z,25.27
2019-05-17T19:51:05.128Z,21.77
2019-05-17T19:53:34.504Z,21.57
2019-05-17T19:56:03.250Z,22.37
2019-05-17T19:58:31.693Z,25.37
2019-05-17T20:01:01.453Z,29.35
2019-05-17T20:03:30.246Z,24.63
2019-05-17T20:05:58.689Z,22.07
2019-05-17T20:08:27.418Z,21.07
2019-05-17T20:10:55.864Z,26.62
2019-05-17T20:13:24.607Z,23.87
2019-05-17T20:15:53.129Z,24.35
2019-05-17T20:18:21.561Z,26.10
2019-05-17T20:20:50.008Z,25.92
2019-05-17T20:23:19.668Z,27.35
2019-05-17T20:25:49.032Z,29.42
2019-05-17T20:28:17.760Z,27.13
2019-05-17T20:30:49.340Z,27.48
2019-05-17T20:33:17.788Z,26.60
2019-05-17T20:35:47.204Z,30.65
2019-05-17T20:38:15.643Z,27.40
2019-05-17T20:40:44.684Z,30.77
2019-05-17T20:43:14.063Z,28.35
2019-05-17T20:45:42.561Z,30.62
2019-05-17T20:48:10.993Z,28.02
2019-05-17T20:50:40.796Z,28.30
2019-05-17T20:53:18.478Z,29.70
2019-05-17T20:55:40.108Z,31.17
2019-05-17T20:58:08.608Z,30.17
2019-05-17T21:00:37.073Z,30.97
2019-05-17T21:03:06.425Z,30.92
2019-05-17T21:05:36.194Z,27.17
2019-05-17T21:08:04.627Z,27.98
2019-05-17T21:10:37.456Z,32.10
2019-05-17T21:13:05.948Z,30.35
2019-05-17T21:15:46.946Z,32.45
2019-05-17T21:18:05.459Z,27.65
2019-05-17T21:20:33.962Z,31.37
2019-05-17T21:23:02.653Z,30.15
2019-05-17T21:25:31.116Z,31.57
2019-05-17T21:27:59.828Z,30.85
2019-05-17T21:30:29.537Z,29.32
2019-05-17T21:32:58.341Z,32.20
2019-05-17T21:35:27.677Z,31.10
2019-05-17T21:37:56.532Z,26.77
2019-05-17T21:40:24.932Z,30.48
2019-05-17T21:42:53.378Z,30.68
2019-05-17T21:45:22.200Z,31.62
2019-05-17T21:47:50.988Z,31.90
2019-05-17T21:50:19.672Z,36.03
2019-05-17T21:52:48.285Z,32.33
2019-05-17T21:55:17.981Z,31.97
2019-05-17T21:57:47.722Z,33.63
2019-05-17T22:00:33.380Z,36.13
2019-05-17T22:03:01.849Z,35.17
2019-05-17T22:05:30.645Z,35.68
2019-05-17T22:07:59.333Z,35.30
2019-05-17T22:10:28.024Z,36.30
2019-05-17T22:12:56.815Z,35.33
2019-05-17T22:15:25.249Z,34.70
2019-05-17T22:17:54.037Z,35.55
2019-05-17T22:20:22.493Z,37.10
2019-05-17T22:22:50.949Z,34.35
2019-05-17T22:25:19.369Z,33.10
2019-05-17T22:27:47.812Z,35.03
2019-05-17T22:30:16.413Z,34.53
2019-05-17T22:32:45.781Z,35.90
2019-05-17T22:35:14.384Z,31.62
2019-05-17T22:37:42.826Z,34.70
2019-05-17T22:40:11.501Z,34.03
2019-05-17T22:42:39.955Z,32.90
2019-05-17T22:45:08.604Z,31.95
2019-05-17T22:47:37.045Z,38.85
2019-05-17T22:50:05.909Z,39.48
2019-05-17T22:52:34.344Z,35.60
2019-05-17T22:55:02.858Z,34.48
2019-05-17T22:57:31.292Z,35.55
2019-05-17T23:00:00.097Z,29.85
2019-05-17T23:02:28.643Z,33.08
2019-05-17T23:04:58.359Z,32.13
2019-05-17T23:07:26.814Z,34.90
2019-05-17T23:09:55.263Z,30.48
2019-05-17T23:12:23.823Z,30.65
2019-05-17T23:14:53.284Z,29.72
2019-05-17T23:17:22.968Z,29.05
2019-05-17T23:19:51.451Z,27.17
2019-05-17T23:22:19.995Z,29.50
2019-05-17T23:24:50.664Z,28.17
2019-05-17T23:27:19.116Z,27.67
2019-05-17T23:29:47.551Z,29.60
2019-05-17T23:32:17.250Z,33.20
2019-05-17T23:34:47.630Z,31.30
2019-05-17T23:37:16.473Z,33.02
2019-05-17T23:39:45.265Z,32.40
2019-05-17T23:42:13.700Z,31.37
2019-05-17T23:44:42.441Z,29.45
2019-05-17T23:47:11.232Z,30.48
2019-05-17T23:49:39.665Z,28.10
2019-05-17T23:52:27.444Z,30.70
2019-05-17T23:54:56.245Z,30.45
2019-05-17T23:57:24.676Z,27.62
2019-05-17T23:59:53.106Z,28.23
